This is the latest recevied weather packets stored in our database for station/object HB9CYX-13. If no packets are shown the sender has not sent any weather packets the latest 10 day(s).
| Time | Temp. | Humidity | Pressure | Rain* | Wind** | Luminosity | Snow |
|---|---|---|---|---|---|---|---|
| 1777884719 | 21.11° C | 45% | 1014.8 hPa | 0 mm | - | - | - |
| 1777883981 | 20° C | 48% | 1015.1 hPa | 0 mm | - | - | - |
| 1777883244 | 21.11° C | 46% | 1014.9 hPa | 0 mm | - | - | - |
| 1777882507 | 19.44° C | 51% | 1015.4 hPa | 0 mm | - | - | - |
| 1777881770 | 19.44° C | 51% | 1015.5 hPa | 0 mm | - | - | - |
| 1777881033 | 18.89° C | 52% | 1015.6 hPa | 0 mm | - | - | - |
| 1777880295 | 19.44° C | 50% | 1015.5 hPa | 0 mm | - | - | - |
| 1777879558 | 18.89° C | 52% | 1015.7 hPa | 0 mm | - | - | - |
| 1777878821 | 16.11° C | 60% | 1016.1 hPa | 0 mm | - | - | - |
| 1777878084 | 14.44° C | 69% | 1016.5 hPa | 0 mm | - | - | - |
| 1777877347 | 13.33° C | 72% | 1016.8 hPa | 0 mm | - | - | - |
| 1777876609 | 12.78° C | 75% | 1017 hPa | 0 mm | - | - | - |
| 1777875872 | 12.22° C | 77% | 1017 hPa | 0 mm | - | - | - |
| 1777875135 | 11.67° C | 78% | 1017.1 hPa | 0 mm | - | - | - |
| 1777874398 | 11.67° C | 80% | 1017.2 hPa | 0 mm | - | - | - |
| 1777873661 | 11.11° C | 82% | 1017.2 hPa | 0 mm | - | - | - |
| 1777872923 | 11.11° C | 82% | 1017.2 hPa | 0 mm | - | - | - |
| 1777872186 | 11.11° C | 82% | 1017.2 hPa | 0 mm | - | - | - |
| 1777871449 | 11.11° C | 80% | 1017.2 hPa | 0 mm | - | - | - |
| 1777870712 | 11.11° C | 81% | 1017.1 hPa | 0 mm | - | - | - |
| 1777869975 | 11.11° C | 81% | 1017 hPa | 0 mm | - | - | - |
| 1777869237 | 11.11° C | 82% | 1016.9 hPa | 0 mm | - | - | - |
| 1777868500 | 10.56° C | 82% | 1017 hPa | 0 mm | - | - | - |
| 1777867763 | 10.56° C | 82% | 1017 hPa | 0 mm | - | - | - |
| 1777867026 | 10.56° C | 82% | 1017.1 hPa | 0 mm | - | - | - |
* Rain latest hour (hover to see other rain measurements)
** Current wind speed in m/s (hover to see current wind gust speed)